sensor_id;sensor_type;location;lat;lon;timestamp;temperature;humidity
9537;DHT22;4807;48.024;11.726;2023-12-07T00:01:29;1.50;99.90
9537;DHT22;4807;48.024;11.726;2023-12-07T00:04:40;1.60;99.90
9537;DHT22;4807;48.024;11.726;2023-12-07T00:07:48;1.50;99.90
9537;DHT22;4807;48.024;11.726;2023-12-07T00:10:57;1.40;99.90
9537;DHT22;4807;48.024;11.726;2023-12-07T00:14:06;1.30;99.90
9537;DHT22;4807;48.024;11.726;2023-12-07T00:17:14;1.80;99.90
9537;DHT22;4807;48.024;11.726;2023-12-07T00:20:24;1.20;99.90
9537;DHT22;4807;48.024;11.726;2023-12-07T00:23:33;1.20;99.90
9537;DHT22;4807;48.024;11.726;2023-12-07T00:26:41;1.20;99.90
9537;DHT22;4807;48.024;11.726;2023-12-07T00:29:50;1.30;99.90
9537;DHT22;4807;48.024;11.726;2023-12-07T00:32:58;1.30;99.90
9537;DHT22;4807;48.024;11.726;2023-12-07T00:36:09;1.20;99.90
9537;DHT22;4807;48.024;11.726;2023-12-07T00:39:19;1.10;99.90
9537;DHT22;4807;48.024;11.726;2023-12-07T00:42:27;1.00;99.90
9537;DHT22;4807;48.024;11.726;2023-12-07T00:45:36;0.80;99.90
9537;DHT22;4807;48.024;11.726;2023-12-07T00:48:45;0.70;99.90
9537;DHT22;4807;48.024;11.726;2023-12-07T00:51:55;0.60;99.90
9537;DHT22;4807;48.024;11.726;2023-12-07T00:55:05;0.50;99.90
9537;DHT22;4807;48.024;11.726;2023-12-07T00:58:18;0.40;99.90
9537;DHT22;4807;48.024;11.726;2023-12-07T01:01:28;0.40;99.90
9537;DHT22;4807;48.024;11.726;2023-12-07T01:04:36;0.40;99.90
9537;DHT22;4807;48.024;11.726;2023-12-07T01:07:47;0.50;99.90
9537;DHT22;4807;48.024;11.726;2023-12-07T01:10:55;0.60;99.90
9537;DHT22;4807;48.024;11.726;2023-12-07T01:14:05;0.70;99.90
9537;DHT22;4807;48.024;11.726;2023-12-07T01:17:15;0.70;99.90
9537;DHT22;4807;48.024;11.726;2023-12-07T01:20:23;0.80;99.90
9537;DHT22;4807;48.024;11.726;2023-12-07T01:23:33;0.90;99.90
9537;DHT22;4807;48.024;11.726;2023-12-07T01:26:42;1.00;99.90
9537;DHT22;4807;48.024;11.726;2023-12-07T01:29:50;0.90;99.90
9537;DHT22;4807;48.024;11.726;2023-12-07T01:32:59;0.90;99.90
9537;DHT22;4807;48.024;11.726;2023-12-07T01:36:07;0.90;99.90
9537;DHT22;4807;48.024;11.726;2023-12-07T01:39:18;0.80;99.90
9537;DHT22;4807;48.024;11.726;2023-12-07T01:42:26;0.60;99.90
9537;DHT22;4807;48.024;11.726;2023-12-07T01:45:34;0.40;99.90
9537;DHT22;4807;48.024;11.726;2023-12-07T01:48:43;0.40;99.90
9537;DHT22;4807;48.024;11.726;2023-12-07T01:51:56;0.30;99.90
9537;DHT22;4807;48.024;11.726;2023-12-07T01:55:07;0.10;99.90
9537;DHT22;4807;48.024;11.726;2023-12-07T01:58:18;-0.10;99.90
9537;DHT22;4807;48.024;11.726;2023-12-07T02:01:27;-0.20;99.90
9537;DHT22;4807;48.024;11.726;2023-12-07T02:04:36;-0.30;99.90
9537;DHT22;4807;48.024;11.726;2023-12-07T02:07:45;-0.40;99.90
9537;DHT22;4807;48.024;11.726;2023-12-07T02:10:55;-0.40;99.90
9537;DHT22;4807;48.024;11.726;2023-12-07T02:14:04;-0.30;99.90
9537;DHT22;4807;48.024;11.726;2023-12-07T02:17:17;-0.30;99.90
9537;DHT22;4807;48.024;11.726;2023-12-07T02:20:33;-0.30;99.90
9537;DHT22;4807;48.024;11.726;2023-12-07T02:23:48;-0.20;99.90
9537;DHT22;4807;48.024;11.726;2023-12-07T02:27:01;-0.10;99.90
9537;DHT22;4807;48.024;11.726;2023-12-07T02:30:11;0.00;99.90
9537;DHT22;4807;48.024;11.726;2023-12-07T02:33:19;0.00;99.90
9537;DHT22;4807;48.024;11.726;2023-12-07T02:36:30;0.10;99.90
9537;DHT22;4807;48.024;11.726;2023-12-07T02:39:41;0.00;99.90
9537;DHT22;4807;48.024;11.726;2023-12-07T02:42:51;0.10;99.90
9537;DHT22;4807;48.024;11.726;2023-12-07T02:46:01;0.20;99.90
9537;DHT22;4807;48.024;11.726;2023-12-07T02:49:11;0.30;99.90
9537;DHT22;4807;48.024;11.726;2023-12-07T02:52:20;0.30;99.90
9537;DHT22;4807;48.024;11.726;2023-12-07T02:55:28;0.40;99.90
9537;DHT22;4807;48.024;11.726;2023-12-07T02:58:38;0.40;99.90
9537;DHT22;4807;48.024;11.726;2023-12-07T03:01:46;0.40;99.90
9537;DHT22;4807;48.024;11.726;2023-12-07T03:04:55;0.40;99.90
9537;DHT22;4807;48.024;11.726;2023-12-07T03:08:03;0.40;99.90
9537;DHT22;4807;48.024;11.726;2023-12-07T03:11:12;0.30;99.90
9537;DHT22;4807;48.024;11.726;2023-12-07T03:14:21;0.40;99.90
9537;DHT22;4807;48.024;11.726;2023-12-07T03:17:29;0.40;99.90
9537;DHT22;4807;48.024;11.726;2023-12-07T03:20:37;0.40;99.90
9537;DHT22;4807;48.024;11.726;2023-12-07T03:23:45;0.30;99.90
9537;DHT22;4807;48.024;11.726;2023-12-07T03:26:54;0.40;99.90
9537;DHT22;4807;48.024;11.726;2023-12-07T03:30:05;0.30;99.90
9537;DHT22;4807;48.024;11.726;2023-12-07T03:33:14;0.20;99.90
9537;DHT22;4807;48.024;11.726;2023-12-07T03:36:23;0.30;99.90
9537;DHT22;4807;48.024;11.726;2023-12-07T03:39:32;0.40;99.90
9537;DHT22;4807;48.024;11.726;2023-12-07T03:42:40;0.40;99.90
9537;DHT22;4807;48.024;11.726;2023-12-07T03:46:05;0.40;99.90
9537;DHT22;4807;48.024;11.726;2023-12-07T03:49:14;0.40;99.90
9537;DHT22;4807;48.024;11.726;2023-12-07T03:52:23;0.30;99.90
9537;DHT22;4807;48.024;11.726;2023-12-07T03:55:32;0.30;99.90
9537;DHT22;4807;48.024;11.726;2023-12-07T03:58:40;0.40;99.90
9537;DHT22;4807;48.024;11.726;2023-12-07T04:01:51;0.40;99.90
9537;DHT22;4807;48.024;11.726;2023-12-07T04:05:04;0.30;99.90
9537;DHT22;4807;48.024;11.726;2023-12-07T04:08:13;0.20;99.90
9537;DHT22;4807;48.024;11.726;2023-12-07T04:11:22;0.20;99.90
9537;DHT22;4807;48.024;11.726;2023-12-07T04:14:30;0.20;99.90
9537;DHT22;4807;48.024;11.726;2023-12-07T04:17:40;0.10;99.90
9537;DHT22;4807;48.024;11.726;2023-12-07T04:20:48;0.30;99.90
9537;DHT22;4807;48.024;11.726;2023-12-07T04:23:57;0.30;99.90
9537;DHT22;4807;48.024;11.726;2023-12-07T04:27:05;0.30;99.90
9537;DHT22;4807;48.024;11.726;2023-12-07T04:30:13;0.30;99.90
9537;DHT22;4807;48.024;11.726;2023-12-07T04:33:24;0.30;99.90
9537;DHT22;4807;48.024;11.726;2023-12-07T04:36:33;0.30;99.90
9537;DHT22;4807;48.024;11.726;2023-12-07T04:39:41;0.20;99.90
9537;DHT22;4807;48.024;11.726;2023-12-07T04:42:49;0.30;99.90
9537;DHT22;4807;48.024;11.726;2023-12-07T04:45:57;0.30;99.90
9537;DHT22;4807;48.024;11.726;2023-12-07T04:49:07;2.80;99.90
9537;DHT22;4807;48.024;11.726;2023-12-07T04:52:16;0.20;99.90
9537;DHT22;4807;48.024;11.726;2023-12-07T04:55:24;0.20;99.90
9537;DHT22;4807;48.024;11.726;2023-12-07T04:58:33;0.20;99.90
9537;DHT22;4807;48.024;11.726;2023-12-07T05:01:41;0.30;99.90
9537;DHT22;4807;48.024;11.726;2023-12-07T05:04:51;0.30;99.90
9537;DHT22;4807;48.024;11.726;2023-12-07T05:07:59;1.50;99.90
9537;DHT22;4807;48.024;11.726;2023-12-07T05:11:07;0.40;99.90
9537;DHT22;4807;48.024;11.726;2023-12-07T05:14:16;0.30;99.90
9537;DHT22;4807;48.024;11.726;2023-12-07T05:17:24;0.20;99.90
9537;DHT22;4807;48.024;11.726;2023-12-07T05:20:34;0.10;99.90
9537;DHT22;4807;48.024;11.726;2023-12-07T05:23:45;0.10;99.90
9537;DHT22;4807;48.024;11.726;2023-12-07T05:26:54;0.10;99.90
9537;DHT22;4807;48.024;11.726;2023-12-07T05:30:02;0.10;99.90
9537;DHT22;4807;48.024;11.726;2023-12-07T05:33:14;0.10;99.90
9537;DHT22;4807;48.024;11.726;2023-12-07T05:36:25;0.00;99.90
9537;DHT22;4807;48.024;11.726;2023-12-07T05:39:33;0.00;99.90
9537;DHT22;4807;48.024;11.726;2023-12-07T05:42:42;0.00;99.90
9537;DHT22;4807;48.024;11.726;2023-12-07T05:45:50;0.00;99.90
9537;DHT22;4807;48.024;11.726;2023-12-07T05:48:59;-0.10;99.90
9537;DHT22;4807;48.024;11.726;2023-12-07T06:01:59;-0.60;99.90
9537;DHT22;4807;48.024;11.726;2023-12-07T06:05:09;-0.70;99.90
9537;DHT22;4807;48.024;11.726;2023-12-07T06:08:18;-0.80;99.90
9537;DHT22;4807;48.024;11.726;2023-12-07T06:11:26;-0.90;99.90
9537;DHT22;4807;48.024;11.726;2023-12-07T06:14:35;-0.90;99.90
9537;DHT22;4807;48.024;11.726;2023-12-07T06:17:44;-1.00;99.90
9537;DHT22;4807;48.024;11.726;2023-12-07T06:20:53;-1.10;99.90
9537;DHT22;4807;48.024;11.726;2023-12-07T06:24:01;-1.20;99.90
9537;DHT22;4807;48.024;11.726;2023-12-07T06:27:10;-1.30;99.90
9537;DHT22;4807;48.024;11.726;2023-12-07T06:30:18;-1.30;99.90
9537;DHT22;4807;48.024;11.726;2023-12-07T06:33:29;-1.40;99.90
9537;DHT22;4807;48.024;11.726;2023-12-07T06:36:38;-1.40;99.90
9537;DHT22;4807;48.024;11.726;2023-12-07T06:39:46;-1.40;99.90
9537;DHT22;4807;48.024;11.726;2023-12-07T06:42:56;0.20;99.90
9537;DHT22;4807;48.024;11.726;2023-12-07T06:46:04;-1.40;99.90
9537;DHT22;4807;48.024;11.726;2023-12-07T06:49:14;-1.40;99.90
9537;DHT22;4807;48.024;11.726;2023-12-07T06:52:22;-1.40;99.90
9537;DHT22;4807;48.024;11.726;2023-12-07T06:55:31;-1.40;99.90
9537;DHT22;4807;48.024;11.726;2023-12-07T06:58:44;-1.50;99.90
9537;DHT22;4807;48.024;11.726;2023-12-07T07:01:53;-1.40;99.90
9537;DHT22;4807;48.024;11.726;2023-12-07T07:05:03;-1.40;99.90
9537;DHT22;4807;48.024;11.726;2023-12-07T07:08:12;-1.40;99.90
9537;DHT22;4807;48.024;11.726;2023-12-07T07:11:21;-1.40;99.90
9537;DHT22;4807;48.024;11.726;2023-12-07T07:14:29;-1.40;99.90
9537;DHT22;4807;48.024;11.726;2023-12-07T07:17:37;-1.40;99.90
9537;DHT22;4807;48.024;11.726;2023-12-07T07:20:47;-1.50;99.90
9537;DHT22;4807;48.024;11.726;2023-12-07T07:23:55;-1.50;99.90
9537;DHT22;4807;48.024;11.726;2023-12-07T07:27:04;-1.40;99.90
9537;DHT22;4807;48.024;11.726;2023-12-07T07:30:13;-1.40;99.90
9537;DHT22;4807;48.024;11.726;2023-12-07T07:33:22;-1.30;99.90
9537;DHT22;4807;48.024;11.726;2023-12-07T07:36:32;-1.10;99.90
9537;DHT22;4807;48.024;11.726;2023-12-07T07:39:40;-1.10;99.90
9537;DHT22;4807;48.024;11.726;2023-12-07T07:42:49;-1.00;99.90
9537;DHT22;4807;48.024;11.726;2023-12-07T07:45:57;-1.00;99.90
9537;DHT22;4807;48.024;11.726;2023-12-07T07:49:06;-0.90;99.90
9537;DHT22;4807;48.024;11.726;2023-12-07T07:52:15;-0.70;99.90
9537;DHT22;4807;48.024;11.726;2023-12-07T07:55:24;-0.80;99.90
9537;DHT22;4807;48.024;11.726;2023-12-07T07:58:33;-0.70;99.90
9537;DHT22;4807;48.024;11.726;2023-12-07T08:01:41;-0.60;99.90
9537;DHT22;4807;48.024;11.726;2023-12-07T08:04:51;-0.80;99.90
9537;DHT22;4807;48.024;11.726;2023-12-07T08:08:02;-0.90;99.90
9537;DHT22;4807;48.024;11.726;2023-12-07T08:11:14;-0.90;99.90
9537;DHT22;4807;48.024;11.726;2023-12-07T08:14:22;-0.90;99.90
9537;DHT22;4807;48.024;11.726;2023-12-07T08:17:31;-0.80;99.90
9537;DHT22;4807;48.024;11.726;2023-12-07T08:20:39;-0.70;99.90
9537;DHT22;4807;48.024;11.726;2023-12-07T08:23:49;-0.50;99.90
9537;DHT22;4807;48.024;11.726;2023-12-07T08:26:58;-0.40;99.90
9537;DHT22;4807;48.024;11.726;2023-12-07T08:30:07;-0.30;99.90
9537;DHT22;4807;48.024;11.726;2023-12-07T08:33:16;-0.20;99.90
9537;DHT22;4807;48.024;11.726;2023-12-07T08:36:25;-0.20;99.90
9537;DHT22;4807;48.024;11.726;2023-12-07T08:39:35;-0.10;99.90
9537;DHT22;4807;48.024;11.726;2023-12-07T08:42:46;-0.10;99.90
9537;DHT22;4807;48.024;11.726;2023-12-07T08:45:58;0.00;99.90
9537;DHT22;4807;48.024;11.726;2023-12-07T08:49:07;0.20;99.90
9537;DHT22;4807;48.024;11.726;2023-12-07T08:52:16;0.30;99.90
9537;DHT22;4807;48.024;11.726;2023-12-07T08:55:42;0.40;99.90
9537;DHT22;4807;48.024;11.726;2023-12-07T08:58:51;0.50;99.90
9537;DHT22;4807;48.024;11.726;2023-12-07T09:01:59;0.80;99.90
9537;DHT22;4807;48.024;11.726;2023-12-07T09:05:08;0.90;99.90
9537;DHT22;4807;48.024;11.726;2023-12-07T09:08:16;1.10;99.90
9537;DHT22;4807;48.024;11.726;2023-12-07T09:11:28;1.40;99.90
9537;DHT22;4807;48.024;11.726;2023-12-07T09:14:36;1.50;99.90
9537;DHT22;4807;48.024;11.726;2023-12-07T09:17:45;1.60;99.90
9537;DHT22;4807;48.024;11.726;2023-12-07T09:20:53;1.70;99.90
9537;DHT22;4807;48.024;11.726;2023-12-07T09:24:01;1.80;99.90
9537;DHT22;4807;48.024;11.726;2023-12-07T09:27:12;2.00;99.90
9537;DHT22;4807;48.024;11.726;2023-12-07T09:30:23;2.10;99.90
9537;DHT22;4807;48.024;11.726;2023-12-07T09:33:32;2.20;99.90
9537;DHT22;4807;48.024;11.726;2023-12-07T09:36:40;2.30;99.90
9537;DHT22;4807;48.024;11.726;2023-12-07T09:39:49;4.60;99.90
9537;DHT22;4807;48.024;11.726;2023-12-07T09:42:59;2.60;99.90
9537;DHT22;4807;48.024;11.726;2023-12-07T09:46:07;2.70;99.90
9537;DHT22;4807;48.024;11.726;2023-12-07T09:49:17;2.80;99.90
9537;DHT22;4807;48.024;11.726;2023-12-07T09:52:25;2.80;99.90
9537;DHT22;4807;48.024;11.726;2023-12-07T09:55:34;2.90;99.90
9537;DHT22;4807;48.024;11.726;2023-12-07T09:58:45;3.10;99.90
9537;DHT22;4807;48.024;11.726;2023-12-07T10:01:54;3.10;99.90
9537;DHT22;4807;48.024;11.726;2023-12-07T10:05:06;3.30;99.20
9537;DHT22;4807;48.024;11.726;2023-12-07T10:08:26;3.50;98.50
9537;DHT22;4807;48.024;11.726;2023-12-07T10:11:35;3.60;98.50
9537;DHT22;4807;48.024;11.726;2023-12-07T10:14:45;3.70;96.20
9537;DHT22;4807;48.024;11.726;2023-12-07T10:17:55;3.70;96.10
9537;DHT22;4807;48.024;11.726;2023-12-07T10:21:06;3.50;95.60
9537;DHT22;4807;48.024;11.726;2023-12-07T10:24:16;3.10;96.40
9537;DHT22;4807;48.024;11.726;2023-12-07T10:27:26;2.90;97.00
9537;DHT22;4807;48.024;11.726;2023-12-07T10:30:36;2.70;97.00
9537;DHT22;4807;48.024;11.726;2023-12-07T10:33:49;2.60;97.20
9537;DHT22;4807;48.024;11.726;2023-12-07T10:36:58;2.60;97.30
9537;DHT22;4807;48.024;11.726;2023-12-07T10:40:07;2.60;96.20
9537;DHT22;4807;48.024;11.726;2023-12-07T10:43:19;2.50;96.60
9537;DHT22;4807;48.024;11.726;2023-12-07T10:46:33;2.50;97.30
9537;DHT22;4807;48.024;11.726;2023-12-07T10:49:43;2.70;96.20
9537;DHT22;4807;48.024;11.726;2023-12-07T10:52:57;2.90;95.80
9537;DHT22;4807;48.024;11.726;2023-12-07T10:56:16;3.00;94.70
9537;DHT22;4807;48.024;11.726;2023-12-07T10:59:35;3.00;95.20
9537;DHT22;4807;48.024;11.726;2023-12-07T11:02:48;3.30;93.50
9537;DHT22;4807;48.024;11.726;2023-12-07T11:05:56;3.30;93.70
9537;DHT22;4807;48.024;11.726;2023-12-07T11:09:07;3.20;92.90
9537;DHT22;4807;48.024;11.726;2023-12-07T11:12:29;3.10;93.00
9537;DHT22;4807;48.024;11.726;2023-12-07T11:15:43;2.90;91.70
9537;DHT22;4807;48.024;11.726;2023-12-07T11:18:54;2.90;92.70
9537;DHT22;4807;48.024;11.726;2023-12-07T11:22:04;3.10;93.10
9537;DHT22;4807;48.024;11.726;2023-12-07T11:25:15;3.20;92.80
9537;DHT22;4807;48.024;11.726;2023-12-07T11:28:37;3.30;92.20
9537;DHT22;4807;48.024;11.726;2023-12-07T11:31:48;3.30;92.70
9537;DHT22;4807;48.024;11.726;2023-12-07T11:35:02;3.30;91.90
9537;DHT22;4807;48.024;11.726;2023-12-07T11:38:11;3.40;92.10
9537;DHT22;4807;48.024;11.726;2023-12-07T11:41:21;3.50;91.70
9537;DHT22;4807;48.024;11.726;2023-12-07T11:44:33;3.70;91.80
9537;DHT22;4807;48.024;11.726;2023-12-07T11:47:41;3.80;90.50
9537;DHT22;4807;48.024;11.726;2023-12-07T11:50:58;3.90;91.50
9537;DHT22;4807;48.024;11.726;2023-12-07T11:54:08;3.90;90.30
9537;DHT22;4807;48.024;11.726;2023-12-07T11:57:18;3.90;90.30
9537;DHT22;4807;48.024;11.726;2023-12-07T12:00:27;3.90;89.10
9537;DHT22;4807;48.024;11.726;2023-12-07T12:03:36;3.90;86.30
9537;DHT22;4807;48.024;11.726;2023-12-07T12:06:46;3.90;87.00
9537;DHT22;4807;48.024;11.726;2023-12-07T12:09:54;3.90;89.50
9537;DHT22;4807;48.024;11.726;2023-12-07T12:13:03;3.90;88.00
9537;DHT22;4807;48.024;11.726;2023-12-07T12:16:13;3.80;88.40
9537;DHT22;4807;48.024;11.726;2023-12-07T12:19:22;3.90;86.80
9537;DHT22;4807;48.024;11.726;2023-12-07T12:22:41;3.90;88.90
9537;DHT22;4807;48.024;11.726;2023-12-07T12:25:50;3.90;89.40
9537;DHT22;4807;48.024;11.726;2023-12-07T12:29:00;4.30;87.90
9537;DHT22;4807;48.024;11.726;2023-12-07T12:32:09;4.70;86.00
9537;DHT22;4807;48.024;11.726;2023-12-07T12:35:17;4.90;86.20
9537;DHT22;4807;48.024;11.726;2023-12-07T12:38:27;5.20;80.60
9537;DHT22;4807;48.024;11.726;2023-12-07T12:41:47;5.20;81.40
9537;DHT22;4807;48.024;11.726;2023-12-07T12:45:02;4.90;83.10
9537;DHT22;4807;48.024;11.726;2023-12-07T12:48:12;4.50;84.20
9537;DHT22;4807;48.024;11.726;2023-12-07T12:51:20;4.20;84.10
9537;DHT22;4807;48.024;11.726;2023-12-07T12:54:32;4.00;85.40
9537;DHT22;4807;48.024;11.726;2023-12-07T12:57:40;3.90;82.70
9537;DHT22;4807;48.024;11.726;2023-12-07T13:00:48;3.80;84.10
9537;DHT22;4807;48.024;11.726;2023-12-07T13:03:57;3.60;86.40
9537;DHT22;4807;48.024;11.726;2023-12-07T13:07:05;3.50;87.50
9537;DHT22;4807;48.024;11.726;2023-12-07T13:10:15;3.30;88.70
9537;DHT22;4807;48.024;11.726;2023-12-07T13:13:24;3.30;89.40
9537;DHT22;4807;48.024;11.726;2023-12-07T13:16:33;3.30;90.20
9537;DHT22;4807;48.024;11.726;2023-12-07T13:19:41;3.20;89.30
9537;DHT22;4807;48.024;11.726;2023-12-07T13:22:50;3.20;90.00
9537;DHT22;4807;48.024;11.726;2023-12-07T13:25:59;3.10;90.20
9537;DHT22;4807;48.024;11.726;2023-12-07T13:29:07;3.10;90.00
9537;DHT22;4807;48.024;11.726;2023-12-07T13:32:27;3.10;88.70
9537;DHT22;4807;48.024;11.726;2023-12-07T13:35:35;3.00;90.00
9537;DHT22;4807;48.024;11.726;2023-12-07T13:38:44;3.10;90.40
9537;DHT22;4807;48.024;11.726;2023-12-07T13:41:56;2.90;89.80
9537;DHT22;4807;48.024;11.726;2023-12-07T13:45:05;2.90;90.10
9537;DHT22;4807;48.024;11.726;2023-12-07T13:48:15;2.70;90.70
9537;DHT22;4807;48.024;11.726;2023-12-07T13:51:24;2.70;91.00
9537;DHT22;4807;48.024;11.726;2023-12-07T13:54:32;2.70;91.00
9537;DHT22;4807;48.024;11.726;2023-12-07T13:58:04;2.60;90.80
9537;DHT22;4807;48.024;11.726;2023-12-07T14:01:13;2.50;91.80
9537;DHT22;4807;48.024;11.726;2023-12-07T14:07:35;2.30;92.20
9537;DHT22;4807;48.024;11.726;2023-12-07T14:10:46;2.30;92.40
9537;DHT22;4807;48.024;11.726;2023-12-07T14:13:55;2.20;92.90
9537;DHT22;4807;48.024;11.726;2023-12-07T14:17:04;2.10;93.10
9537;DHT22;4807;48.024;11.726;2023-12-07T14:20:17;2.10;93.20
9537;DHT22;4807;48.024;11.726;2023-12-07T14:23:47;1.80;93.60
9537;DHT22;4807;48.024;11.726;2023-12-07T14:27:02;1.80;94.30
9537;DHT22;4807;48.024;11.726;2023-12-07T14:30:13;1.60;94.20
9537;DHT22;4807;48.024;11.726;2023-12-07T14:33:23;1.40;94.40
9537;DHT22;4807;48.024;11.726;2023-12-07T14:36:33;1.30;94.80
9537;DHT22;4807;48.024;11.726;2023-12-07T14:39:42;1.20;95.00
9537;DHT22;4807;48.024;11.726;2023-12-07T14:42:51;1.00;95.00
9537;DHT22;4807;48.024;11.726;2023-12-07T14:46:03;0.90;96.00
9537;DHT22;4807;48.024;11.726;2023-12-07T14:49:15;0.70;95.90
9537;DHT22;4807;48.024;11.726;2023-12-07T14:52:28;0.60;96.60
9537;DHT22;4807;48.024;11.726;2023-12-07T14:55:37;0.40;96.80
9537;DHT22;4807;48.024;11.726;2023-12-07T14:58:45;0.30;97.20
9537;DHT22;4807;48.024;11.726;2023-12-07T15:01:56;0.10;97.80
9537;DHT22;4807;48.024;11.726;2023-12-07T15:05:07;-0.10;98.30
9537;DHT22;4807;48.024;11.726;2023-12-07T15:08:17;-0.20;98.70
9537;DHT22;4807;48.024;11.726;2023-12-07T15:11:26;-0.40;99.30
9537;DHT22;4807;48.024;11.726;2023-12-07T15:14:38;-0.50;99.90
9537;DHT22;4807;48.024;11.726;2023-12-07T15:17:53;-0.70;99.90
9537;DHT22;4807;48.024;11.726;2023-12-07T15:21:05;-0.90;99.90
9537;DHT22;4807;48.024;11.726;2023-12-07T15:24:14;-1.00;99.90
9537;DHT22;4807;48.024;11.726;2023-12-07T15:27:35;0.30;99.90
9537;DHT22;4807;48.024;11.726;2023-12-07T15:30:43;-1.20;99.90
9537;DHT22;4807;48.024;11.726;2023-12-07T15:33:53;-1.40;99.90
9537;DHT22;4807;48.024;11.726;2023-12-07T15:37:03;-1.40;99.90
9537;DHT22;4807;48.024;11.726;2023-12-07T15:40:12;-1.40;99.90
9537;DHT22;4807;48.024;11.726;2023-12-07T15:43:20;-1.40;99.90
9537;DHT22;4807;48.024;11.726;2023-12-07T15:46:28;-1.60;99.90
9537;DHT22;4807;48.024;11.726;2023-12-07T15:49:38;-1.60;99.90
9537;DHT22;4807;48.024;11.726;2023-12-07T15:52:48;-1.80;99.90
9537;DHT22;4807;48.024;11.726;2023-12-07T15:55:56;-1.70;99.90
9537;DHT22;4807;48.024;11.726;2023-12-07T15:59:05;-1.70;99.90
9537;DHT22;4807;48.024;11.726;2023-12-07T16:02:14;-1.80;99.90
9537;DHT22;4807;48.024;11.726;2023-12-07T16:05:25;-1.90;99.90
9537;DHT22;4807;48.024;11.726;2023-12-07T16:08:33;-1.90;99.90
9537;DHT22;4807;48.024;11.726;2023-12-07T16:11:42;-1.70;99.90
9537;DHT22;4807;48.024;11.726;2023-12-07T16:14:50;-1.70;99.90
9537;DHT22;4807;48.024;11.726;2023-12-07T16:18:03;-0.90;99.90
9537;DHT22;4807;48.024;11.726;2023-12-07T16:21:13;-1.90;99.90
9537;DHT22;4807;48.024;11.726;2023-12-07T16:24:24;-2.20;99.90
9537;DHT22;4807;48.024;11.726;2023-12-07T16:27:32;-2.30;99.90
9537;DHT22;4807;48.024;11.726;2023-12-07T16:30:41;-2.40;99.90
9537;DHT22;4807;48.024;11.726;2023-12-07T16:33:55;-2.40;99.90
9537;DHT22;4807;48.024;11.726;2023-12-07T16:37:07;-2.40;99.90
9537;DHT22;4807;48.024;11.726;2023-12-07T16:40:16;-2.40;99.90
9537;DHT22;4807;48.024;11.726;2023-12-07T16:43:24;-2.50;99.90
9537;DHT22;4807;48.024;11.726;2023-12-07T16:46:33;-2.50;99.90
9537;DHT22;4807;48.024;11.726;2023-12-07T16:49:42;-2.50;99.90
9537;DHT22;4807;48.024;11.726;2023-12-07T16:52:52;-2.40;99.90
9537;DHT22;4807;48.024;11.726;2023-12-07T16:56:07;-2.50;99.90
9537;DHT22;4807;48.024;11.726;2023-12-07T16:59:15;-2.30;99.90
9537;DHT22;4807;48.024;11.726;2023-12-07T17:02:24;-2.40;99.90
9537;DHT22;4807;48.024;11.726;2023-12-07T17:05:33;-2.50;99.90
9537;DHT22;4807;48.024;11.726;2023-12-07T17:08:43;-2.50;99.90
9537;DHT22;4807;48.024;11.726;2023-12-07T17:11:52;-2.60;99.90
9537;DHT22;4807;48.024;11.726;2023-12-07T17:15:01;-2.70;99.90
9537;DHT22;4807;48.024;11.726;2023-12-07T17:18:10;-2.60;99.90
9537;DHT22;4807;48.024;11.726;2023-12-07T17:21:20;-2.50;99.90
9537;DHT22;4807;48.024;11.726;2023-12-07T17:24:30;-2.50;99.90
9537;DHT22;4807;48.024;11.726;2023-12-07T17:27:38;-2.50;99.90
9537;DHT22;4807;48.024;11.726;2023-12-07T17:30:46;-2.50;99.90
9537;DHT22;4807;48.024;11.726;2023-12-07T17:33:55;-2.70;99.90
9537;DHT22;4807;48.024;11.726;2023-12-07T17:37:08;-2.70;99.90
9537;DHT22;4807;48.024;11.726;2023-12-07T17:40:18;-2.70;99.90
9537;DHT22;4807;48.024;11.726;2023-12-07T17:43:27;-2.80;99.90
9537;DHT22;4807;48.024;11.726;2023-12-07T17:46:36;-2.70;99.90
9537;DHT22;4807;48.024;11.726;2023-12-07T17:49:44;-2.70;99.90
9537;DHT22;4807;48.024;11.726;2023-12-07T17:52:53;-2.70;99.90
9537;DHT22;4807;48.024;11.726;2023-12-07T17:56:04;-2.60;99.90
9537;DHT22;4807;48.024;11.726;2023-12-07T17:59:15;-2.50;99.90
9537;DHT22;4807;48.024;11.726;2023-12-07T18:02:23;-2.40;99.90
9537;DHT22;4807;48.024;11.726;2023-12-07T18:05:32;-2.40;99.90
9537;DHT22;4807;48.024;11.726;2023-12-07T18:08:40;-1.90;99.90
9537;DHT22;4807;48.024;11.726;2023-12-07T18:11:50;-2.40;99.90
9537;DHT22;4807;48.024;11.726;2023-12-07T18:14:58;-2.40;99.90
9537;DHT22;4807;48.024;11.726;2023-12-07T18:18:06;-2.30;99.90
9537;DHT22;4807;48.024;11.726;2023-12-07T18:21:15;-2.30;99.90
9537;DHT22;4807;48.024;11.726;2023-12-07T18:24:24;-2.20;99.90
9537;DHT22;4807;48.024;11.726;2023-12-07T18:27:34;-2.20;99.90
9537;DHT22;4807;48.024;11.726;2023-12-07T18:34:25;-2.00;99.90
9537;DHT22;4807;48.024;11.726;2023-12-07T18:37:33;-2.00;99.90
9537;DHT22;4807;48.024;11.726;2023-12-07T18:40:45;0.30;99.90
9537;DHT22;4807;48.024;11.726;2023-12-07T18:43:56;-2.40;99.90
9537;DHT22;4807;48.024;11.726;2023-12-07T18:47:25;-2.30;99.90
9537;DHT22;4807;48.024;11.726;2023-12-07T18:51:35;-2.20;99.90
9537;DHT22;4807;48.024;11.726;2023-12-07T18:54:44;-2.30;99.90
9537;DHT22;4807;48.024;11.726;2023-12-07T18:57:54;-2.30;99.90
9537;DHT22;4807;48.024;11.726;2023-12-07T19:01:04;-2.20;99.90
9537;DHT22;4807;48.024;11.726;2023-12-07T19:04:13;-2.20;99.90
9537;DHT22;4807;48.024;11.726;2023-12-07T19:07:24;-2.20;99.90
9537;DHT22;4807;48.024;11.726;2023-12-07T19:10:33;-2.20;99.90
9537;DHT22;4807;48.024;11.726;2023-12-07T19:13:44;-0.60;99.90
9537;DHT22;4807;48.024;11.726;2023-12-07T19:16:54;-2.30;99.90
9537;DHT22;4807;48.024;11.726;2023-12-07T19:20:04;-2.40;99.90
9537;DHT22;4807;48.024;11.726;2023-12-07T19:23:14;-2.50;99.90
9537;DHT22;4807;48.024;11.726;2023-12-07T19:26:23;-2.60;99.90
9537;DHT22;4807;48.024;11.726;2023-12-07T19:29:41;-2.60;99.90
9537;DHT22;4807;48.024;11.726;2023-12-07T19:33:03;-3.40;99.90
9537;DHT22;4807;48.024;11.726;2023-12-07T19:36:12;-2.60;99.90
9537;DHT22;4807;48.024;11.726;2023-12-07T19:39:20;-2.70;99.90
9537;DHT22;4807;48.024;11.726;2023-12-07T19:42:29;-2.80;99.90
9537;DHT22;4807;48.024;11.726;2023-12-07T19:45:38;-2.70;99.90
9537;DHT22;4807;48.024;11.726;2023-12-07T19:48:48;-2.80;99.90
9537;DHT22;4807;48.024;11.726;2023-12-07T19:51:56;-2.90;99.90
9537;DHT22;4807;48.024;11.726;2023-12-07T19:55:05;-2.80;99.90
9537;DHT22;4807;48.024;11.726;2023-12-07T19:58:15;-2.90;99.90
9537;DHT22;4807;48.024;11.726;2023-12-07T20:01:24;-3.00;99.90
9537;DHT22;4807;48.024;11.726;2023-12-07T20:04:41;-3.00;99.90
9537;DHT22;4807;48.024;11.726;2023-12-07T20:07:49;-1.90;99.90
9537;DHT22;4807;48.024;11.726;2023-12-07T20:10:59;-3.20;99.90
9537;DHT22;4807;48.024;11.726;2023-12-07T20:14:07;-3.20;99.90
9537;DHT22;4807;48.024;11.726;2023-12-07T20:17:16;-3.30;99.90
9537;DHT22;4807;48.024;11.726;2023-12-07T20:20:27;-3.20;99.90
9537;DHT22;4807;48.024;11.726;2023-12-07T20:23:35;-3.20;99.90
9537;DHT22;4807;48.024;11.726;2023-12-07T20:26:47;-2.40;99.90
9537;DHT22;4807;48.024;11.726;2023-12-07T20:30:01;-3.30;99.90
9537;DHT22;4807;48.024;11.726;2023-12-07T20:33:10;-3.30;99.90
9537;DHT22;4807;48.024;11.726;2023-12-07T20:36:20;-3.30;99.90
9537;DHT22;4807;48.024;11.726;2023-12-07T20:39:31;-5.30;99.90
9537;DHT22;4807;48.024;11.726;2023-12-07T20:42:44;-3.40;99.90
9537;DHT22;4807;48.024;11.726;2023-12-07T20:45:52;-1.30;99.90
9537;DHT22;4807;48.024;11.726;2023-12-07T20:49:01;-3.20;99.90